sensor_id;sensor_type;location;lat;lon;timestamp;P1;durP1;ratioP1;P2;durP2;ratioP2
75772;SDS011;64381;0.000;0.000;2023-08-24T00:00:26;10.13;;;6.90;;
75772;SDS011;64381;0.000;0.000;2023-08-24T00:02:51;9.10;;;6.60;;
75772;SDS011;64381;0.000;0.000;2023-08-24T00:05:16;9.87;;;7.00;;
75772;SDS011;64381;0.000;0.000;2023-08-24T00:07:42;9.60;;;7.13;;
75772;SDS011;64381;0.000;0.000;2023-08-24T00:10:07;11.53;;;7.07;;
75772;SDS011;64381;0.000;0.000;2023-08-24T00:12:32;10.40;;;7.27;;
75772;SDS011;64381;0.000;0.000;2023-08-24T00:14:58;10.23;;;6.88;;
75772;SDS011;64381;0.000;0.000;2023-08-24T00:17:23;12.17;;;7.60;;
75772;SDS011;64381;0.000;0.000;2023-08-24T00:19:48;10.17;;;7.10;;
75772;SDS011;64381;0.000;0.000;2023-08-24T00:22:14;9.70;;;7.20;;
75772;SDS011;64381;0.000;0.000;2023-08-24T00:24:39;9.93;;;7.03;;
75772;SDS011;64381;0.000;0.000;2023-08-24T00:27:04;11.17;;;7.27;;
75772;SDS011;64381;0.000;0.000;2023-08-24T00:29:29;9.97;;;7.60;;
75772;SDS011;64381;0.000;0.000;2023-08-24T00:31:55;9.70;;;7.03;;
75772;SDS011;64381;0.000;0.000;2023-08-24T00:34:20;11.80;;;7.43;;
75772;SDS011;64381;0.000;0.000;2023-08-24T00:36:45;9.67;;;7.27;;
75772;SDS011;64381;0.000;0.000;2023-08-24T00:39:10;9.80;;;7.13;;
75772;SDS011;64381;0.000;0.000;2023-08-24T00:41:35;9.80;;;7.07;;
75772;SDS011;64381;0.000;0.000;2023-08-24T00:44:01;10.30;;;7.40;;
75772;SDS011;64381;0.000;0.000;2023-08-24T00:46:26;9.93;;;7.53;;
75772;SDS011;64381;0.000;0.000;2023-08-24T00:48:51;9.73;;;7.83;;
75772;SDS011;64381;0.000;0.000;2023-08-24T00:51:17;11.50;;;7.17;;
75772;SDS011;64381;0.000;0.000;2023-08-24T00:53:42;10.63;;;7.97;;
75772;SDS011;64381;0.000;0.000;2023-08-24T00:56:07;10.20;;;7.80;;
75772;SDS011;64381;0.000;0.000;2023-08-24T00:58:33;11.07;;;7.63;;
75772;SDS011;64381;0.000;0.000;2023-08-24T01:00:58;9.88;;;7.43;;
75772;SDS011;64381;0.000;0.000;2023-08-24T01:03:24;10.70;;;8.00;;
75772;SDS011;64381;0.000;0.000;2023-08-24T01:05:49;9.93;;;7.33;;
75772;SDS011;64381;0.000;0.000;2023-08-24T01:08:15;9.47;;;7.57;;
75772;SDS011;64381;0.000;0.000;2023-08-24T01:10:44;11.38;;;7.97;;
75772;SDS011;64381;0.000;0.000;2023-08-24T01:13:20;10.55;;;7.90;;
75772;SDS011;64381;0.000;0.000;2023-08-24T01:16:08;11.20;;;8.38;;
75772;SDS011;64381;0.000;0.000;2023-08-24T01:18:41;11.27;;;7.78;;
75772;SDS011;64381;0.000;0.000;2023-08-24T01:21:07;9.85;;;8.02;;
75772;SDS011;64381;0.000;0.000;2023-08-24T01:26:14;11.05;;;8.32;;
75772;SDS011;64381;0.000;0.000;2023-08-24T01:28:42;11.15;;;8.30;;
75772;SDS011;64381;0.000;0.000;2023-08-24T01:31:09;10.50;;;8.18;;
75772;SDS011;64381;0.000;0.000;2023-08-24T01:33:34;9.87;;;7.73;;
75772;SDS011;64381;0.000;0.000;2023-08-24T01:35:59;10.90;;;8.13;;
75772;SDS011;64381;0.000;0.000;2023-08-24T01:38:25;10.80;;;7.47;;
75772;SDS011;64381;0.000;0.000;2023-08-24T01:43:38;10.25;;;8.02;;
75772;SDS011;64381;0.000;0.000;2023-08-24T01:46:05;11.07;;;7.95;;
75772;SDS011;64381;0.000;0.000;2023-08-24T01:48:32;10.43;;;8.02;;
75772;SDS011;64381;0.000;0.000;2023-08-24T01:50:58;10.50;;;7.75;;
75772;SDS011;64381;0.000;0.000;2023-08-24T01:53:26;11.30;;;8.15;;
75772;SDS011;64381;0.000;0.000;2023-08-24T01:55:53;11.02;;;7.90;;
75772;SDS011;64381;0.000;0.000;2023-08-24T01:58:18;10.43;;;8.27;;
75772;SDS011;64381;0.000;0.000;2023-08-24T02:00:45;10.35;;;8.10;;
75772;SDS011;64381;0.000;0.000;2023-08-24T02:03:10;10.18;;;8.23;;
75772;SDS011;64381;0.000;0.000;2023-08-24T02:05:35;11.37;;;8.13;;
75772;SDS011;64381;0.000;0.000;2023-08-24T02:08:00;12.07;;;8.00;;
75772;SDS011;64381;0.000;0.000;2023-08-24T02:10:25;10.17;;;7.80;;
75772;SDS011;64381;0.000;0.000;2023-08-24T02:12:51;11.53;;;8.30;;
75772;SDS011;64381;0.000;0.000;2023-08-24T02:15:16;10.47;;;7.93;;
75772;SDS011;64381;0.000;0.000;2023-08-24T02:17:41;11.07;;;8.10;;
75772;SDS011;64381;0.000;0.000;2023-08-24T02:20:07;10.37;;;7.73;;
75772;SDS011;64381;0.000;0.000;2023-08-24T02:22:32;12.77;;;8.50;;
75772;SDS011;64381;0.000;0.000;2023-08-24T02:24:57;11.47;;;8.70;;
75772;SDS011;64381;0.000;0.000;2023-08-24T02:27:23;9.57;;;7.60;;
75772;SDS011;64381;0.000;0.000;2023-08-24T02:29:48;11.07;;;8.10;;
75772;SDS011;64381;0.000;0.000;2023-08-24T02:32:13;11.07;;;8.37;;
75772;SDS011;64381;0.000;0.000;2023-08-24T02:34:38;10.70;;;7.90;;
75772;SDS011;64381;0.000;0.000;2023-08-24T02:37:03;10.60;;;8.10;;
75772;SDS011;64381;0.000;0.000;2023-08-24T02:39:29;10.13;;;7.90;;
75772;SDS011;64381;0.000;0.000;2023-08-24T02:41:54;10.80;;;7.87;;
75772;SDS011;64381;0.000;0.000;2023-08-24T02:44:19;11.60;;;8.20;;
75772;SDS011;64381;0.000;0.000;2023-08-24T02:46:44;9.67;;;7.80;;
75772;SDS011;64381;0.000;0.000;2023-08-24T02:49:10;10.02;;;7.57;;
75772;SDS011;64381;0.000;0.000;2023-08-24T02:51:35;10.88;;;7.88;;
75772;SDS011;64381;0.000;0.000;2023-08-24T02:54:00;11.13;;;7.40;;
75772;SDS011;64381;0.000;0.000;2023-08-24T02:56:25;10.10;;;7.90;;
75772;SDS011;64381;0.000;0.000;2023-08-24T02:58:51;11.10;;;8.30;;
75772;SDS011;64381;0.000;0.000;2023-08-24T03:01:16;9.93;;;7.83;;
75772;SDS011;64381;0.000;0.000;2023-08-24T03:03:41;13.93;;;8.40;;
75772;SDS011;64381;0.000;0.000;2023-08-24T03:06:07;10.43;;;8.13;;
75772;SDS011;64381;0.000;0.000;2023-08-24T03:08:32;11.40;;;8.17;;
75772;SDS011;64381;0.000;0.000;2023-08-24T03:10:59;12.02;;;8.50;;
75772;SDS011;64381;0.000;0.000;2023-08-24T03:13:25;11.00;;;8.40;;
75772;SDS011;64381;0.000;0.000;2023-08-24T03:15:50;12.20;;;8.40;;
75772;SDS011;64381;0.000;0.000;2023-08-24T03:18:16;12.13;;;8.20;;
75772;SDS011;64381;0.000;0.000;2023-08-24T03:20:41;10.35;;;8.23;;
75772;SDS011;64381;0.000;0.000;2023-08-24T03:23:07;11.95;;;8.73;;
75772;SDS011;64381;0.000;0.000;2023-08-24T03:25:35;9.40;;;7.80;;
75772;SDS011;64381;0.000;0.000;2023-08-24T03:28:01;10.93;;;8.10;;
75772;SDS011;64381;0.000;0.000;2023-08-24T03:30:27;11.40;;;8.00;;
75772;SDS011;64381;0.000;0.000;2023-08-24T03:32:52;10.67;;;7.50;;
75772;SDS011;64381;0.000;0.000;2023-08-24T03:35:17;13.50;;;8.53;;
75772;SDS011;64381;0.000;0.000;2023-08-24T03:37:42;11.13;;;8.00;;
75772;SDS011;64381;0.000;0.000;2023-08-24T03:40:08;11.20;;;8.20;;
75772;SDS011;64381;0.000;0.000;2023-08-24T03:42:33;9.87;;;7.23;;
75772;SDS011;64381;0.000;0.000;2023-08-24T03:45:01;10.77;;;7.77;;
75772;SDS011;64381;0.000;0.000;2023-08-24T03:47:26;9.90;;;7.97;;
75772;SDS011;64381;0.000;0.000;2023-08-24T03:49:52;10.60;;;7.43;;
75772;SDS011;64381;0.000;0.000;2023-08-24T03:52:17;11.07;;;7.83;;
75772;SDS011;64381;0.000;0.000;2023-08-24T03:54:42;11.00;;;8.10;;
75772;SDS011;64381;0.000;0.000;2023-08-24T03:57:07;11.57;;;7.67;;
75772;SDS011;64381;0.000;0.000;2023-08-24T03:59:33;10.83;;;7.90;;
75772;SDS011;64381;0.000;0.000;2023-08-24T04:01:58;11.67;;;8.30;;
75772;SDS011;64381;0.000;0.000;2023-08-24T04:04:23;11.90;;;8.50;;
75772;SDS011;64381;0.000;0.000;2023-08-24T04:06:48;10.07;;;7.93;;
75772;SDS011;64381;0.000;0.000;2023-08-24T04:09:13;12.07;;;7.60;;
75772;SDS011;64381;0.000;0.000;2023-08-24T04:11:39;12.30;;;8.03;;
75772;SDS011;64381;0.000;0.000;2023-08-24T04:14:04;9.83;;;7.50;;
75772;SDS011;64381;0.000;0.000;2023-08-24T04:16:29;12.27;;;7.67;;
75772;SDS011;64381;0.000;0.000;2023-08-24T04:18:54;10.33;;;7.77;;
75772;SDS011;64381;0.000;0.000;2023-08-24T04:21:19;10.07;;;7.73;;
75772;SDS011;64381;0.000;0.000;2023-08-24T04:23:45;11.13;;;8.17;;
75772;SDS011;64381;0.000;0.000;2023-08-24T04:26:10;9.80;;;7.33;;
75772;SDS011;64381;0.000;0.000;2023-08-24T04:28:36;12.13;;;8.05;;
75772;SDS011;64381;0.000;0.000;2023-08-24T04:31:01;9.43;;;7.17;;
75772;SDS011;64381;0.000;0.000;2023-08-24T04:33:27;10.33;;;7.53;;
75772;SDS011;64381;0.000;0.000;2023-08-24T04:35:52;11.27;;;7.40;;
75772;SDS011;64381;0.000;0.000;2023-08-24T04:38:17;11.87;;;7.67;;
75772;SDS011;64381;0.000;0.000;2023-08-24T04:40:52;10.80;;;7.87;;
75772;SDS011;64381;0.000;0.000;2023-08-24T04:43:19;11.50;;;7.60;;
75772;SDS011;64381;0.000;0.000;2023-08-24T04:45:45;11.38;;;8.40;;
75772;SDS011;64381;0.000;0.000;2023-08-24T04:48:11;10.35;;;8.10;;
75772;SDS011;64381;0.000;0.000;2023-08-24T04:50:36;10.70;;;7.90;;
75772;SDS011;64381;0.000;0.000;2023-08-24T04:53:02;10.40;;;8.17;;
75772;SDS011;64381;0.000;0.000;2023-08-24T04:55:27;10.97;;;8.30;;
75772;SDS011;64381;0.000;0.000;2023-08-24T04:57:52;11.33;;;8.13;;
75772;SDS011;64381;0.000;0.000;2023-08-24T05:00:18;10.33;;;7.90;;
75772;SDS011;64381;0.000;0.000;2023-08-24T05:02:43;11.83;;;7.87;;
75772;SDS011;64381;0.000;0.000;2023-08-24T05:05:08;10.87;;;8.10;;
75772;SDS011;64381;0.000;0.000;2023-08-24T05:07:34;14.23;;;8.00;;
75772;SDS011;64381;0.000;0.000;2023-08-24T05:09:59;11.18;;;7.95;;
75772;SDS011;64381;0.000;0.000;2023-08-24T05:12:24;12.18;;;7.82;;
75772;SDS011;64381;0.000;0.000;2023-08-24T05:14:50;10.43;;;7.83;;
75772;SDS011;64381;0.000;0.000;2023-08-24T05:17:15;10.87;;;7.60;;
75772;SDS011;64381;0.000;0.000;2023-08-24T05:19:40;10.87;;;7.83;;
75772;SDS011;64381;0.000;0.000;2023-08-24T05:22:05;11.73;;;8.10;;
75772;SDS011;64381;0.000;0.000;2023-08-24T05:24:30;10.97;;;8.03;;
75772;SDS011;64381;0.000;0.000;2023-08-24T05:26:56;10.70;;;8.07;;
75772;SDS011;64381;0.000;0.000;2023-08-24T05:29:21;9.67;;;7.90;;
75772;SDS011;64381;0.000;0.000;2023-08-24T05:31:46;14.37;;;8.60;;
75772;SDS011;64381;0.000;0.000;2023-08-24T05:34:11;11.23;;;8.53;;
75772;SDS011;64381;0.000;0.000;2023-08-24T05:36:36;14.33;;;8.83;;
75772;SDS011;64381;0.000;0.000;2023-08-24T05:39:02;11.77;;;8.73;;
75772;SDS011;64381;0.000;0.000;2023-08-24T05:41:27;11.80;;;8.50;;
75772;SDS011;64381;0.000;0.000;2023-08-24T05:43:52;12.50;;;8.67;;
75772;SDS011;64381;0.000;0.000;2023-08-24T05:46:17;11.87;;;9.07;;
75772;SDS011;64381;0.000;0.000;2023-08-24T05:48:43;12.37;;;9.00;;
75772;SDS011;64381;0.000;0.000;2023-08-24T05:51:08;11.90;;;8.33;;
75772;SDS011;64381;0.000;0.000;2023-08-24T05:53:33;12.87;;;8.60;;
75772;SDS011;64381;0.000;0.000;2023-08-24T05:55:58;13.80;;;8.33;;
75772;SDS011;64381;0.000;0.000;2023-08-24T05:58:23;12.27;;;8.47;;
75772;SDS011;64381;0.000;0.000;2023-08-24T06:00:54;12.87;;;8.37;;
75772;SDS011;64381;0.000;0.000;2023-08-24T06:03:20;10.30;;;7.88;;
75772;SDS011;64381;0.000;0.000;2023-08-24T06:05:46;12.30;;;7.93;;
75772;SDS011;64381;0.000;0.000;2023-08-24T06:08:11;11.53;;;8.23;;
75772;SDS011;64381;0.000;0.000;2023-08-24T06:10:36;11.60;;;8.07;;
75772;SDS011;64381;0.000;0.000;2023-08-24T06:13:01;10.63;;;8.27;;
75772;SDS011;64381;0.000;0.000;2023-08-24T06:15:27;11.00;;;7.90;;
75772;SDS011;64381;0.000;0.000;2023-08-24T06:17:52;10.93;;;8.00;;
75772;SDS011;64381;0.000;0.000;2023-08-24T06:20:17;11.93;;;8.30;;
75772;SDS011;64381;0.000;0.000;2023-08-24T06:22:42;10.83;;;8.20;;
75772;SDS011;64381;0.000;0.000;2023-08-24T06:25:08;11.23;;;8.43;;
75772;SDS011;64381;0.000;0.000;2023-08-24T06:27:33;11.30;;;8.13;;
75772;SDS011;64381;0.000;0.000;2023-08-24T06:29:59;11.93;;;7.50;;
75772;SDS011;64381;0.000;0.000;2023-08-24T06:32:24;11.17;;;8.93;;
75772;SDS011;64381;0.000;0.000;2023-08-24T06:34:49;11.57;;;8.10;;
75772;SDS011;64381;0.000;0.000;2023-08-24T06:37:14;12.60;;;8.10;;
75772;SDS011;64381;0.000;0.000;2023-08-24T06:39:39;10.07;;;7.87;;
75772;SDS011;64381;0.000;0.000;2023-08-24T06:42:05;10.43;;;8.23;;
75772;SDS011;64381;0.000;0.000;2023-08-24T06:44:30;10.53;;;8.20;;
75772;SDS011;64381;0.000;0.000;2023-08-24T06:46:55;11.30;;;8.37;;
75772;SDS011;64381;0.000;0.000;2023-08-24T06:49:20;10.03;;;7.80;;
75772;SDS011;64381;0.000;0.000;2023-08-24T06:51:46;11.07;;;8.27;;
75772;SDS011;64381;0.000;0.000;2023-08-24T06:54:11;10.73;;;8.00;;
75772;SDS011;64381;0.000;0.000;2023-08-24T06:56:36;10.33;;;8.33;;
75772;SDS011;64381;0.000;0.000;2023-08-24T06:59:01;10.40;;;8.00;;
75772;SDS011;64381;0.000;0.000;2023-08-24T07:01:26;11.60;;;8.03;;
75772;SDS011;64381;0.000;0.000;2023-08-24T07:03:52;10.10;;;7.80;;
75772;SDS011;64381;0.000;0.000;2023-08-24T07:06:17;10.63;;;8.20;;
75772;SDS011;64381;0.000;0.000;2023-08-24T07:08:42;10.60;;;7.37;;
75772;SDS011;64381;0.000;0.000;2023-08-24T07:11:07;10.10;;;8.17;;
75772;SDS011;64381;0.000;0.000;2023-08-24T07:13:33;9.93;;;7.43;;
75772;SDS011;64381;0.000;0.000;2023-08-24T07:15:58;10.17;;;7.80;;
75772;SDS011;64381;0.000;0.000;2023-08-24T07:18:23;10.47;;;7.80;;
75772;SDS011;64381;0.000;0.000;2023-08-24T07:20:48;9.20;;;7.40;;
75772;SDS011;64381;0.000;0.000;2023-08-24T07:23:14;11.03;;;7.73;;
75772;SDS011;64381;0.000;0.000;2023-08-24T07:25:39;11.83;;;7.90;;
75772;SDS011;64381;0.000;0.000;2023-08-24T07:28:04;9.77;;;7.73;;
75772;SDS011;64381;0.000;0.000;2023-08-24T07:30:30;10.30;;;7.38;;
75772;SDS011;64381;0.000;0.000;2023-08-24T07:32:56;9.55;;;7.28;;
75772;SDS011;64381;0.000;0.000;2023-08-24T07:35:22;11.03;;;8.13;;
75772;SDS011;64381;0.000;0.000;2023-08-24T07:37:47;9.03;;;7.17;;
75772;SDS011;64381;0.000;0.000;2023-08-24T07:40:12;9.82;;;7.88;;
75772;SDS011;64381;0.000;0.000;2023-08-24T07:45:10;9.57;;;7.40;;
75772;SDS011;64381;0.000;0.000;2023-08-24T07:47:35;10.73;;;7.83;;
75772;SDS011;64381;0.000;0.000;2023-08-24T07:50:00;11.13;;;7.37;;
75772;SDS011;64381;0.000;0.000;2023-08-24T07:52:25;9.53;;;7.13;;
75772;SDS011;64381;0.000;0.000;2023-08-24T07:54:51;10.63;;;7.47;;
75772;SDS011;64381;0.000;0.000;2023-08-24T07:57:16;9.67;;;7.63;;
75772;SDS011;64381;0.000;0.000;2023-08-24T07:59:41;9.60;;;7.43;;
75772;SDS011;64381;0.000;0.000;2023-08-24T08:02:06;9.60;;;7.70;;
75772;SDS011;64381;0.000;0.000;2023-08-24T08:04:31;10.33;;;7.70;;
75772;SDS011;64381;0.000;0.000;2023-08-24T08:06:57;9.83;;;7.60;;
75772;SDS011;64381;0.000;0.000;2023-08-24T08:09:22;10.47;;;7.47;;
75772;SDS011;64381;0.000;0.000;2023-08-24T08:11:47;11.57;;;7.57;;
75772;SDS011;64381;0.000;0.000;2023-08-24T08:14:12;10.47;;;7.67;;
75772;SDS011;64381;0.000;0.000;2023-08-24T08:16:37;9.87;;;7.90;;
75772;SDS011;64381;0.000;0.000;2023-08-24T08:19:03;10.67;;;7.27;;
75772;SDS011;64381;0.000;0.000;2023-08-24T08:21:28;10.40;;;7.53;;
75772;SDS011;64381;0.000;0.000;2023-08-24T08:23:53;9.33;;;7.40;;
75772;SDS011;64381;0.000;0.000;2023-08-24T08:26:18;9.47;;;7.23;;
75772;SDS011;64381;0.000;0.000;2023-08-24T08:28:44;8.70;;;6.97;;
75772;SDS011;64381;0.000;0.000;2023-08-24T08:31:09;9.63;;;7.67;;
75772;SDS011;64381;0.000;0.000;2023-08-24T08:33:34;10.07;;;7.43;;
75772;SDS011;64381;0.000;0.000;2023-08-24T08:35:59;9.57;;;7.00;;
75772;SDS011;64381;0.000;0.000;2023-08-24T08:38:24;10.43;;;7.30;;
75772;SDS011;64381;0.000;0.000;2023-08-24T08:40:50;9.73;;;7.67;;
75772;SDS011;64381;0.000;0.000;2023-08-24T08:43:15;10.53;;;7.60;;
75772;SDS011;64381;0.000;0.000;2023-08-24T08:45:40;10.03;;;7.33;;
75772;SDS011;64381;0.000;0.000;2023-08-24T08:48:06;10.77;;;7.30;;
75772;SDS011;64381;0.000;0.000;2023-08-24T08:50:33;10.30;;;7.35;;
75772;SDS011;64381;0.000;0.000;2023-08-24T08:52:59;11.07;;;8.05;;
75772;SDS011;64381;0.000;0.000;2023-08-24T08:55:25;10.40;;;7.40;;
75772;SDS011;64381;0.000;0.000;2023-08-24T08:57:50;9.20;;;6.80;;
75772;SDS011;64381;0.000;0.000;2023-08-24T09:00:15;10.17;;;7.60;;
75772;SDS011;64381;0.000;0.000;2023-08-24T09:02:42;9.77;;;7.53;;
75772;SDS011;64381;0.000;0.000;2023-08-24T09:05:08;10.32;;;7.40;;
75772;SDS011;64381;0.000;0.000;2023-08-24T09:07:34;9.48;;;7.07;;
75772;SDS011;64381;0.000;0.000;2023-08-24T09:10:00;9.93;;;6.87;;
75772;SDS011;64381;0.000;0.000;2023-08-24T09:12:25;10.60;;;7.30;;
75772;SDS011;64381;0.000;0.000;2023-08-24T09:14:50;9.57;;;7.27;;
75772;SDS011;64381;0.000;0.000;2023-08-24T09:17:21;9.77;;;6.90;;
75772;SDS011;64381;0.000;0.000;2023-08-24T09:19:47;9.70;;;7.20;;
75772;SDS011;64381;0.000;0.000;2023-08-24T09:22:14;11.57;;;7.50;;
75772;SDS011;64381;0.000;0.000;2023-08-24T09:24:40;9.47;;;7.20;;
75772;SDS011;64381;0.000;0.000;2023-08-24T09:27:15;9.40;;;6.63;;
75772;SDS011;64381;0.000;0.000;2023-08-24T09:29:41;9.93;;;7.30;;
75772;SDS011;64381;0.000;0.000;2023-08-24T09:32:09;9.47;;;7.23;;
75772;SDS011;64381;0.000;0.000;2023-08-24T09:34:35;9.73;;;7.25;;
75772;SDS011;64381;0.000;0.000;2023-08-24T09:37:01;9.02;;;7.03;;
75772;SDS011;64381;0.000;0.000;2023-08-24T09:39:26;9.27;;;7.10;;
75772;SDS011;64381;0.000;0.000;2023-08-24T09:41:52;10.13;;;7.40;;
75772;SDS011;64381;0.000;0.000;2023-08-24T09:44:18;8.80;;;6.90;;
75772;SDS011;64381;0.000;0.000;2023-08-24T09:46:44;10.32;;;7.40;;
75772;SDS011;64381;0.000;0.000;2023-08-24T09:49:10;10.17;;;7.30;;
75772;SDS011;64381;0.000;0.000;2023-08-24T09:51:36;10.85;;;7.32;;
75772;SDS011;64381;0.000;0.000;2023-08-24T09:54:06;9.90;;;7.13;;
75772;SDS011;64381;0.000;0.000;2023-08-24T09:56:34;10.10;;;7.28;;
75772;SDS011;64381;0.000;0.000;2023-08-24T09:59:01;10.60;;;7.30;;
75772;SDS011;64381;0.000;0.000;2023-08-24T10:01:45;9.70;;;6.90;;
75772;SDS011;64381;0.000;0.000;2023-08-24T10:04:12;10.18;;;7.38;;
75772;SDS011;64381;0.000;0.000;2023-08-24T10:06:39;10.65;;;7.63;;
75772;SDS011;64381;0.000;0.000;2023-08-24T10:09:06;9.90;;;7.45;;
75772;SDS011;64381;0.000;0.000;2023-08-24T10:11:34;9.65;;;7.53;;
75772;SDS011;64381;0.000;0.000;2023-08-24T10:14:05;9.63;;;7.13;;
75772;SDS011;64381;0.000;0.000;2023-08-24T10:16:37;9.88;;;7.38;;
75772;SDS011;64381;0.000;0.000;2023-08-24T10:19:03;9.65;;;7.20;;
75772;SDS011;64381;0.000;0.000;2023-08-24T10:21:29;10.00;;;7.23;;
75772;SDS011;64381;0.000;0.000;2023-08-24T10:23:55;11.55;;;7.10;;
75772;SDS011;64381;0.000;0.000;2023-08-24T10:26:22;9.13;;;6.95;;
75772;SDS011;64381;0.000;0.000;2023-08-24T10:28:47;10.20;;;7.25;;
75772;SDS011;64381;0.000;0.000;2023-08-24T10:31:15;9.68;;;7.22;;
75772;SDS011;64381;0.000;0.000;2023-08-24T10:33:40;9.93;;;7.40;;
75772;SDS011;64381;0.000;0.000;2023-08-24T10:36:06;9.95;;;7.10;;
75772;SDS011;64381;0.000;0.000;2023-08-24T10:38:33;10.73;;;7.13;;
75772;SDS011;64381;0.000;0.000;2023-08-24T10:41:03;9.38;;;6.80;;
75772;SDS011;64381;0.000;0.000;2023-08-24T10:43:30;9.85;;;7.15;;
75772;SDS011;64381;0.000;0.000;2023-08-24T10:45:55;9.23;;;6.90;;
75772;SDS011;64381;0.000;0.000;2023-08-24T10:54:00;10.20;;;6.85;;
75772;SDS011;64381;0.000;0.000;2023-08-24T10:56:52;10.97;;;6.93;;
75772;SDS011;64381;0.000;0.000;2023-08-24T10:59:17;8.50;;;6.90;;
75772;SDS011;64381;0.000;0.000;2023-08-24T11:01:54;9.35;;;6.88;;
75772;SDS011;64381;0.000;0.000;2023-08-24T11:04:20;10.43;;;7.18;;
75772;SDS011;64381;0.000;0.000;2023-08-24T11:09:24;10.98;;;6.75;;
75772;SDS011;64381;0.000;0.000;2023-08-24T11:11:56;10.40;;;6.90;;
75772;SDS011;64381;0.000;0.000;2023-08-24T11:14:25;9.88;;;6.70;;
75772;SDS011;64381;0.000;0.000;2023-08-24T11:16:51;9.98;;;6.60;;
75772;SDS011;64381;0.000;0.000;2023-08-24T11:19:17;9.50;;;6.40;;
75772;SDS011;64381;0.000;0.000;2023-08-24T11:21:43;9.83;;;6.70;;
75772;SDS011;64381;0.000;0.000;2023-08-24T11:24:10;9.68;;;6.57;;
75772;SDS011;64381;0.000;0.000;2023-08-24T11:26:44;9.75;;;6.45;;
75772;SDS011;64381;0.000;0.000;2023-08-24T11:29:13;10.18;;;6.57;;
75772;SDS011;64381;0.000;0.000;2023-08-24T11:31:39;8.95;;;6.30;;
75772;SDS011;64381;0.000;0.000;2023-08-24T11:34:04;9.53;;;6.60;;
75772;SDS011;64381;0.000;0.000;2023-08-24T11:36:31;8.43;;;5.97;;
75772;SDS011;64381;0.000;0.000;2023-08-24T11:38:57;8.77;;;6.40;;
75772;SDS011;64381;0.000;0.000;2023-08-24T11:41:23;10.30;;;6.75;;
75772;SDS011;64381;0.000;0.000;2023-08-24T11:43:49;9.37;;;6.70;;
75772;SDS011;64381;0.000;0.000;2023-08-24T11:46:23;11.23;;;5.88;;
75772;SDS011;64381;0.000;0.000;2023-08-24T11:48:49;10.47;;;6.30;;
75772;SDS011;64381;0.000;0.000;2023-08-24T11:51:14;9.53;;;6.33;;
75772;SDS011;64381;0.000;0.000;2023-08-24T11:53:41;9.60;;;6.22;;
75772;SDS011;64381;0.000;0.000;2023-08-24T11:56:10;9.90;;;6.55;;
75772;SDS011;64381;0.000;0.000;2023-08-24T11:58:39;8.77;;;6.40;;
75772;SDS011;64381;0.000;0.000;2023-08-24T12:01:05;8.98;;;5.93;;
75772;SDS011;64381;0.000;0.000;2023-08-24T12:03:31;9.40;;;6.27;;
75772;SDS011;64381;0.000;0.000;2023-08-24T12:06:06;9.10;;;6.18;;
75772;SDS011;64381;0.000;0.000;2023-08-24T12:08:39;9.73;;;6.35;;
75772;SDS011;64381;0.000;0.000;2023-08-24T12:13:45;7.35;;;5.75;;
75772;SDS011;64381;0.000;0.000;2023-08-24T12:16:15;8.90;;;5.82;;
75772;SDS011;64381;0.000;0.000;2023-08-24T12:18:49;10.07;;;5.82;;
75772;SDS011;64381;0.000;0.000;2023-08-24T12:21:17;8.43;;;5.90;;
75772;SDS011;64381;0.000;0.000;2023-08-24T12:23:43;7.72;;;5.90;;
75772;SDS011;64381;0.000;0.000;2023-08-24T12:26:08;8.80;;;5.73;;
75772;SDS011;64381;0.000;0.000;2023-08-24T12:28:41;8.13;;;5.82;;
75772;SDS011;64381;0.000;0.000;2023-08-24T12:31:06;8.93;;;5.95;;
75772;SDS011;64381;0.000;0.000;2023-08-24T12:33:32;9.75;;;6.03;;
75772;SDS011;64381;0.000;0.000;2023-08-24T12:35:57;8.20;;;6.25;;
75772;SDS011;64381;0.000;0.000;2023-08-24T12:38:23;8.68;;;5.80;;
75772;SDS011;64381;0.000;0.000;2023-08-24T12:40:49;9.30;;;5.72;;
75772;SDS011;64381;0.000;0.000;2023-08-24T12:43:15;8.27;;;5.57;;
75772;SDS011;64381;0.000;0.000;2023-08-24T12:45:40;8.57;;;5.97;;
75772;SDS011;64381;0.000;0.000;2023-08-24T12:48:05;8.93;;;5.97;;
75772;SDS011;64381;0.000;0.000;2023-08-24T12:50:31;7.60;;;5.57;;
75772;SDS011;64381;0.000;0.000;2023-08-24T12:52:56;8.67;;;5.80;;
75772;SDS011;64381;0.000;0.000;2023-08-24T12:55:21;9.27;;;5.80;;
75772;SDS011;64381;0.000;0.000;2023-08-24T12:57:46;8.77;;;5.63;;
75772;SDS011;64381;0.000;0.000;2023-08-24T13:00:12;8.17;;;5.73;;
75772;SDS011;64381;0.000;0.000;2023-08-24T13:02:39;9.05;;;6.22;;
75772;SDS011;64381;0.000;0.000;2023-08-24T13:05:04;8.73;;;5.43;;
75772;SDS011;64381;0.000;0.000;2023-08-24T13:07:30;11.30;;;5.97;;
75772;SDS011;64381;0.000;0.000;2023-08-24T13:09:55;8.50;;;5.90;;
75772;SDS011;64381;0.000;0.000;2023-08-24T13:12:20;9.30;;;5.90;;
75772;SDS011;64381;0.000;0.000;2023-08-24T13:14:45;9.53;;;5.70;;
75772;SDS011;64381;0.000;0.000;2023-08-24T13:17:11;8.60;;;5.80;;
75772;SDS011;64381;0.000;0.000;2023-08-24T13:19:36;8.83;;;5.77;;
75772;SDS011;64381;0.000;0.000;2023-08-24T13:22:02;9.90;;;5.30;;
75772;SDS011;64381;0.000;0.000;2023-08-24T13:24:27;7.90;;;5.53;;
75772;SDS011;64381;0.000;0.000;2023-08-24T13:26:52;9.37;;;6.37;;
75772;SDS011;64381;0.000;0.000;2023-08-24T13:29:17;7.47;;;5.93;;
75772;SDS011;64381;0.000;0.000;2023-08-24T13:31:43;8.07;;;5.70;;
75772;SDS011;64381;0.000;0.000;2023-08-24T13:34:08;8.93;;;5.23;;
75772;SDS011;64381;0.000;0.000;2023-08-24T13:36:33;8.53;;;5.80;;
75772;SDS011;64381;0.000;0.000;2023-08-24T13:38:58;9.50;;;5.63;;
75772;SDS011;64381;0.000;0.000;2023-08-24T13:41:23;7.30;;;5.23;;
75772;SDS011;64381;0.000;0.000;2023-08-24T13:43:49;7.67;;;5.47;;
75772;SDS011;64381;0.000;0.000;2023-08-24T13:46:14;9.07;;;5.60;;
75772;SDS011;64381;0.000;0.000;2023-08-24T13:48:39;8.60;;;5.50;;
75772;SDS011;64381;0.000;0.000;2023-08-24T13:51:04;8.07;;;5.70;;
75772;SDS011;64381;0.000;0.000;2023-08-24T13:53:30;8.50;;;5.80;;
75772;SDS011;64381;0.000;0.000;2023-08-24T13:55:55;8.18;;;5.88;;
75772;SDS011;64381;0.000;0.000;2023-08-24T13:58:20;9.17;;;5.70;;
75772;SDS011;64381;0.000;0.000;2023-08-24T14:00:45;7.73;;;6.10;;
75772;SDS011;64381;0.000;0.000;2023-08-24T14:03:10;8.53;;;5.60;;
75772;SDS011;64381;0.000;0.000;2023-08-24T14:05:39;9.07;;;5.90;;
75772;SDS011;64381;0.000;0.000;2023-08-24T14:08:05;7.75;;;5.90;;
75772;SDS011;64381;0.000;0.000;2023-08-24T14:10:30;8.27;;;5.63;;
75772;SDS011;64381;0.000;0.000;2023-08-24T14:12:55;9.47;;;5.70;;
75772;SDS011;64381;0.000;0.000;2023-08-24T14:15:20;8.43;;;5.93;;
75772;SDS011;64381;0.000;0.000;2023-08-24T14:17:46;8.63;;;6.30;;
75772;SDS011;64381;0.000;0.000;2023-08-24T14:20:11;8.40;;;5.93;;
75772;SDS011;64381;0.000;0.000;2023-08-24T14:22:36;8.77;;;5.70;;
75772;SDS011;64381;0.000;0.000;2023-08-24T14:25:01;8.27;;;5.97;;
75772;SDS011;64381;0.000;0.000;2023-08-24T14:27:27;8.17;;;6.00;;
75772;SDS011;64381;0.000;0.000;2023-08-24T14:29:52;8.80;;;6.33;;
75772;SDS011;64381;0.000;0.000;2023-08-24T14:32:17;8.02;;;5.60;;
75772;SDS011;64381;0.000;0.000;2023-08-24T14:34:43;8.87;;;5.57;;
75772;SDS011;64381;0.000;0.000;2023-08-24T14:37:08;7.70;;;5.63;;
75772;SDS011;64381;0.000;0.000;2023-08-24T14:39:33;8.43;;;5.73;;
75772;SDS011;64381;0.000;0.000;2023-08-24T14:41:58;9.50;;;5.47;;
75772;SDS011;64381;0.000;0.000;2023-08-24T14:44:24;7.67;;;5.80;;
75772;SDS011;64381;0.000;0.000;2023-08-24T14:46:49;8.30;;;5.53;;
75772;SDS011;64381;0.000;0.000;2023-08-24T14:49:14;7.50;;;5.53;;
75772;SDS011;64381;0.000;0.000;2023-08-24T14:51:39;7.53;;;5.50;;
75772;SDS011;64381;0.000;0.000;2023-08-24T14:54:04;7.43;;;5.03;;
75772;SDS011;64381;0.000;0.000;2023-08-24T14:56:30;9.20;;;5.90;;
75772;SDS011;64381;0.000;0.000;2023-08-24T14:58:55;8.53;;;5.87;;
75772;SDS011;64381;0.000;0.000;2023-08-24T15:01:20;7.97;;;5.40;;
75772;SDS011;64381;0.000;0.000;2023-08-24T15:03:45;7.80;;;5.43;;